sensor_id;sensor_type;location;lat;lon;timestamp;P1;durP1;ratioP1;P2;durP2;ratioP2
16824;SDS011;8529;48.108;-1.706;2023-12-28T00:01:47;9.88;;;2.40;;
16824;SDS011;8529;48.108;-1.706;2023-12-28T00:04:15;11.65;;;1.92;;
16824;SDS011;8529;48.108;-1.706;2023-12-28T00:06:42;12.48;;;2.42;;
16824;SDS011;8529;48.108;-1.706;2023-12-28T00:09:11;20.02;;;2.83;;
16824;SDS011;8529;48.108;-1.706;2023-12-28T00:11:38;18.40;;;2.90;;
16824;SDS011;8529;48.108;-1.706;2023-12-28T00:14:05;10.25;;;2.33;;
16824;SDS011;8529;48.108;-1.706;2023-12-28T00:16:32;13.88;;;2.33;;
16824;SDS011;8529;48.108;-1.706;2023-12-28T00:19:01;13.93;;;3.22;;
16824;SDS011;8529;48.108;-1.706;2023-12-28T00:21:29;12.25;;;2.13;;
16824;SDS011;8529;48.108;-1.706;2023-12-28T00:23:56;13.68;;;2.63;;
16824;SDS011;8529;48.108;-1.706;2023-12-28T00:26:24;15.65;;;2.25;;
16824;SDS011;8529;48.108;-1.706;2023-12-28T00:28:51;16.10;;;2.35;;
16824;SDS011;8529;48.108;-1.706;2023-12-28T00:31:19;13.55;;;3.17;;
16824;SDS011;8529;48.108;-1.706;2023-12-28T00:33:46;13.65;;;3.13;;
16824;SDS011;8529;48.108;-1.706;2023-12-28T00:36:14;11.50;;;2.47;;
16824;SDS011;8529;48.108;-1.706;2023-12-28T00:38:41;12.48;;;2.25;;
16824;SDS011;8529;48.108;-1.706;2023-12-28T00:41:09;15.95;;;3.13;;
16824;SDS011;8529;48.108;-1.706;2023-12-28T00:43:37;16.08;;;2.20;;
16824;SDS011;8529;48.108;-1.706;2023-12-28T00:46:04;15.32;;;2.72;;
16824;SDS011;8529;48.108;-1.706;2023-12-28T00:48:31;10.95;;;2.65;;
16824;SDS011;8529;48.108;-1.706;2023-12-28T00:50:58;17.88;;;3.33;;
16824;SDS011;8529;48.108;-1.706;2023-12-28T00:53:25;11.65;;;3.40;;
16824;SDS011;8529;48.108;-1.706;2023-12-28T00:55:53;12.43;;;2.90;;
16824;SDS011;8529;48.108;-1.706;2023-12-28T00:58:20;14.73;;;3.58;;
16824;SDS011;8529;48.108;-1.706;2023-12-28T01:00:48;14.43;;;3.17;;
16824;SDS011;8529;48.108;-1.706;2023-12-28T01:03:18;15.18;;;2.83;;
16824;SDS011;8529;48.108;-1.706;2023-12-28T01:05:46;16.23;;;3.53;;
16824;SDS011;8529;48.108;-1.706;2023-12-28T01:08:15;13.55;;;2.88;;
16824;SDS011;8529;48.108;-1.706;2023-12-28T01:10:42;18.52;;;2.58;;
16824;SDS011;8529;48.108;-1.706;2023-12-28T01:13:10;12.80;;;2.83;;
16824;SDS011;8529;48.108;-1.706;2023-12-28T01:15:37;19.30;;;3.10;;
16824;SDS011;8529;48.108;-1.706;2023-12-28T01:18:05;14.73;;;3.05;;
16824;SDS011;8529;48.108;-1.706;2023-12-28T01:20:32;12.57;;;2.10;;
16824;SDS011;8529;48.108;-1.706;2023-12-28T01:22:59;15.20;;;2.65;;
16824;SDS011;8529;48.108;-1.706;2023-12-28T01:25:27;17.63;;;3.70;;
16824;SDS011;8529;48.108;-1.706;2023-12-28T01:27:54;15.75;;;2.70;;
16824;SDS011;8529;48.108;-1.706;2023-12-28T01:30:21;13.75;;;2.70;;
16824;SDS011;8529;48.108;-1.706;2023-12-28T01:32:48;16.52;;;2.50;;
16824;SDS011;8529;48.108;-1.706;2023-12-28T01:35:17;11.93;;;2.70;;
16824;SDS011;8529;48.108;-1.706;2023-12-28T01:37:44;18.05;;;2.70;;
16824;SDS011;8529;48.108;-1.706;2023-12-28T01:40:11;10.95;;;2.70;;
16824;SDS011;8529;48.108;-1.706;2023-12-28T01:42:38;10.98;;;2.83;;
16824;SDS011;8529;48.108;-1.706;2023-12-28T01:45:06;17.50;;;3.08;;
16824;SDS011;8529;48.108;-1.706;2023-12-28T01:47:33;16.35;;;2.75;;
16824;SDS011;8529;48.108;-1.706;2023-12-28T01:50:01;16.10;;;4.18;;
16824;SDS011;8529;48.108;-1.706;2023-12-28T01:52:30;10.85;;;1.90;;
16824;SDS011;8529;48.108;-1.706;2023-12-28T01:54:57;15.30;;;2.55;;
16824;SDS011;8529;48.108;-1.706;2023-12-28T01:57:24;17.23;;;2.72;;
16824;SDS011;8529;48.108;-1.706;2023-12-28T01:59:52;19.50;;;3.20;;
16824;SDS011;8529;48.108;-1.706;2023-12-28T02:02:19;18.92;;;2.85;;
16824;SDS011;8529;48.108;-1.706;2023-12-28T02:04:47;17.83;;;3.47;;
16824;SDS011;8529;48.108;-1.706;2023-12-28T02:07:14;14.55;;;2.88;;
16824;SDS011;8529;48.108;-1.706;2023-12-28T02:09:43;13.13;;;2.60;;
16824;SDS011;8529;48.108;-1.706;2023-12-28T02:12:10;17.55;;;3.67;;
16824;SDS011;8529;48.108;-1.706;2023-12-28T02:14:37;19.33;;;3.38;;
16824;SDS011;8529;48.108;-1.706;2023-12-28T02:17:06;11.68;;;2.75;;
16824;SDS011;8529;48.108;-1.706;2023-12-28T02:19:39;11.45;;;3.13;;
16824;SDS011;8529;48.108;-1.706;2023-12-28T02:22:07;17.17;;;2.85;;
16824;SDS011;8529;48.108;-1.706;2023-12-28T02:27:32;19.00;;;3.38;;
16824;SDS011;8529;48.108;-1.706;2023-12-28T02:29:59;14.65;;;2.85;;
16824;SDS011;8529;48.108;-1.706;2023-12-28T02:32:31;15.95;;;2.85;;
16824;SDS011;8529;48.108;-1.706;2023-12-28T02:35:01;11.52;;;2.95;;
16824;SDS011;8529;48.108;-1.706;2023-12-28T02:37:30;12.63;;;3.05;;
16824;SDS011;8529;48.108;-1.706;2023-12-28T02:39:57;17.98;;;2.85;;
16824;SDS011;8529;48.108;-1.706;2023-12-28T02:42:24;13.05;;;3.30;;
16824;SDS011;8529;48.108;-1.706;2023-12-28T02:44:53;16.10;;;2.88;;
16824;SDS011;8529;48.108;-1.706;2023-12-28T02:47:20;14.98;;;3.42;;
16824;SDS011;8529;48.108;-1.706;2023-12-28T02:49:47;13.55;;;3.05;;
16824;SDS011;8529;48.108;-1.706;2023-12-28T02:52:14;15.57;;;3.17;;
16824;SDS011;8529;48.108;-1.706;2023-12-28T02:54:42;16.25;;;3.53;;
16824;SDS011;8529;48.108;-1.706;2023-12-28T02:57:09;13.80;;;3.03;;
16824;SDS011;8529;48.108;-1.706;2023-12-28T02:59:36;14.57;;;2.58;;
16824;SDS011;8529;48.108;-1.706;2023-12-28T03:02:05;16.30;;;2.78;;
16824;SDS011;8529;48.108;-1.706;2023-12-28T03:04:31;13.98;;;2.55;;
16824;SDS011;8529;48.108;-1.706;2023-12-28T03:06:59;20.70;;;3.10;;
16824;SDS011;8529;48.108;-1.706;2023-12-28T03:09:26;16.58;;;3.33;;
16824;SDS011;8529;48.108;-1.706;2023-12-28T03:11:53;18.83;;;3.13;;
16824;SDS011;8529;48.108;-1.706;2023-12-28T03:14:20;19.75;;;4.75;;
16824;SDS011;8529;48.108;-1.706;2023-12-28T03:16:47;14.07;;;3.35;;
16824;SDS011;8529;48.108;-1.706;2023-12-28T03:19:16;16.30;;;3.47;;
16824;SDS011;8529;48.108;-1.706;2023-12-28T03:21:43;17.70;;;3.03;;
16824;SDS011;8529;48.108;-1.706;2023-12-28T03:24:10;14.57;;;3.10;;
16824;SDS011;8529;48.108;-1.706;2023-12-28T03:26:37;19.50;;;2.65;;
16824;SDS011;8529;48.108;-1.706;2023-12-28T03:29:05;15.75;;;2.78;;
16824;SDS011;8529;48.108;-1.706;2023-12-28T03:31:32;18.77;;;3.50;;
16824;SDS011;8529;48.108;-1.706;2023-12-28T03:33:59;22.00;;;3.95;;
16824;SDS011;8529;48.108;-1.706;2023-12-28T03:36:28;15.30;;;3.10;;
16824;SDS011;8529;48.108;-1.706;2023-12-28T03:38:55;14.90;;;3.20;;
16824;SDS011;8529;48.108;-1.706;2023-12-28T03:41:22;15.38;;;3.42;;
16824;SDS011;8529;48.108;-1.706;2023-12-28T03:43:49;22.85;;;3.22;;
16824;SDS011;8529;48.108;-1.706;2023-12-28T03:46:16;14.98;;;2.50;;
16824;SDS011;8529;48.108;-1.706;2023-12-28T03:48:43;16.70;;;2.97;;
16824;SDS011;8529;48.108;-1.706;2023-12-28T03:51:13;15.95;;;3.83;;
16824;SDS011;8529;48.108;-1.706;2023-12-28T03:53:42;15.00;;;3.05;;
16824;SDS011;8529;48.108;-1.706;2023-12-28T03:56:17;19.42;;;3.80;;
16824;SDS011;8529;48.108;-1.706;2023-12-28T03:58:44;15.63;;;3.10;;
16824;SDS011;8529;48.108;-1.706;2023-12-28T04:01:11;14.43;;;2.80;;
16824;SDS011;8529;48.108;-1.706;2023-12-28T04:03:39;20.17;;;3.60;;
16824;SDS011;8529;48.108;-1.706;2023-12-28T04:06:06;20.13;;;3.25;;
16824;SDS011;8529;48.108;-1.706;2023-12-28T04:08:33;14.55;;;2.80;;
16824;SDS011;8529;48.108;-1.706;2023-12-28T04:11:02;18.02;;;3.80;;
16824;SDS011;8529;48.108;-1.706;2023-12-28T04:13:29;16.58;;;3.13;;
16824;SDS011;8529;48.108;-1.706;2023-12-28T04:15:56;18.33;;;3.67;;
16824;SDS011;8529;48.108;-1.706;2023-12-28T04:18:23;17.63;;;2.58;;
16824;SDS011;8529;48.108;-1.706;2023-12-28T04:20:50;17.42;;;3.00;;
16824;SDS011;8529;48.108;-1.706;2023-12-28T04:23:18;14.95;;;3.22;;
16824;SDS011;8529;48.108;-1.706;2023-12-28T04:25:45;13.80;;;3.63;;
16824;SDS011;8529;48.108;-1.706;2023-12-28T04:28:14;15.38;;;3.10;;
16824;SDS011;8529;48.108;-1.706;2023-12-28T04:30:41;16.25;;;3.05;;
16824;SDS011;8529;48.108;-1.706;2023-12-28T04:33:08;13.40;;;3.22;;
16824;SDS011;8529;48.108;-1.706;2023-12-28T04:35:35;20.60;;;3.88;;
16824;SDS011;8529;48.108;-1.706;2023-12-28T04:38:02;12.90;;;3.50;;
16824;SDS011;8529;48.108;-1.706;2023-12-28T04:40:30;17.35;;;3.47;;
16824;SDS011;8529;48.108;-1.706;2023-12-28T04:42:58;15.40;;;2.72;;
16824;SDS011;8529;48.108;-1.706;2023-12-28T04:45:27;18.95;;;3.42;;
16824;SDS011;8529;48.108;-1.706;2023-12-28T04:47:54;18.23;;;3.22;;
16824;SDS011;8529;48.108;-1.706;2023-12-28T04:50:21;15.15;;;2.67;;
16824;SDS011;8529;48.108;-1.706;2023-12-28T04:52:48;14.32;;;2.97;;
16824;SDS011;8529;48.108;-1.706;2023-12-28T04:55:15;14.43;;;3.10;;
16824;SDS011;8529;48.108;-1.706;2023-12-28T04:57:42;20.33;;;2.83;;
16824;SDS011;8529;48.108;-1.706;2023-12-28T05:00:10;12.32;;;2.47;;
16824;SDS011;8529;48.108;-1.706;2023-12-28T05:02:39;15.57;;;2.90;;
16824;SDS011;8529;48.108;-1.706;2023-12-28T05:05:06;15.65;;;2.60;;
16824;SDS011;8529;48.108;-1.706;2023-12-28T05:07:36;17.55;;;3.47;;
16824;SDS011;8529;48.108;-1.706;2023-12-28T05:10:04;19.27;;;3.55;;
16824;SDS011;8529;48.108;-1.706;2023-12-28T05:12:31;13.35;;;3.42;;
16824;SDS011;8529;48.108;-1.706;2023-12-28T05:14:58;16.23;;;2.60;;
16824;SDS011;8529;48.108;-1.706;2023-12-28T05:17:25;15.18;;;2.80;;
16824;SDS011;8529;48.108;-1.706;2023-12-28T05:19:54;16.35;;;2.60;;
16824;SDS011;8529;48.108;-1.706;2023-12-28T05:22:21;13.30;;;2.50;;
16824;SDS011;8529;48.108;-1.706;2023-12-28T05:24:49;12.70;;;2.80;;
16824;SDS011;8529;48.108;-1.706;2023-12-28T05:27:16;15.45;;;2.88;;
16824;SDS011;8529;48.108;-1.706;2023-12-28T05:29:43;22.55;;;4.20;;
16824;SDS011;8529;48.108;-1.706;2023-12-28T05:32:10;14.13;;;2.70;;
16824;SDS011;8529;48.108;-1.706;2023-12-28T05:34:37;12.68;;;2.85;;
16824;SDS011;8529;48.108;-1.706;2023-12-28T05:37:06;14.75;;;3.65;;
16824;SDS011;8529;48.108;-1.706;2023-12-28T05:39:33;20.02;;;3.35;;
16824;SDS011;8529;48.108;-1.706;2023-12-28T05:42:00;14.52;;;2.88;;
16824;SDS011;8529;48.108;-1.706;2023-12-28T05:44:27;14.90;;;3.47;;
16824;SDS011;8529;48.108;-1.706;2023-12-28T05:46:54;15.02;;;2.75;;
16824;SDS011;8529;48.108;-1.706;2023-12-28T05:49:22;13.48;;;3.33;;
16824;SDS011;8529;48.108;-1.706;2023-12-28T05:51:50;18.65;;;2.92;;
16824;SDS011;8529;48.108;-1.706;2023-12-28T05:54:18;22.50;;;5.15;;
16824;SDS011;8529;48.108;-1.706;2023-12-28T05:56:45;16.67;;;3.08;;
16824;SDS011;8529;48.108;-1.706;2023-12-28T05:59:13;16.00;;;2.95;;
16824;SDS011;8529;48.108;-1.706;2023-12-28T06:01:43;15.98;;;3.33;;
16824;SDS011;8529;48.108;-1.706;2023-12-28T06:04:10;16.77;;;3.92;;
16824;SDS011;8529;48.108;-1.706;2023-12-28T06:06:37;15.68;;;2.90;;
16824;SDS011;8529;48.108;-1.706;2023-12-28T06:09:04;17.63;;;3.30;;
16824;SDS011;8529;48.108;-1.706;2023-12-28T06:11:34;20.20;;;4.22;;
16824;SDS011;8529;48.108;-1.706;2023-12-28T06:14:01;12.40;;;3.13;;
16824;SDS011;8529;48.108;-1.706;2023-12-28T06:16:28;15.40;;;2.85;;
16824;SDS011;8529;48.108;-1.706;2023-12-28T06:18:58;17.02;;;3.70;;
16824;SDS011;8529;48.108;-1.706;2023-12-28T06:21:26;18.73;;;2.72;;
16824;SDS011;8529;48.108;-1.706;2023-12-28T06:23:55;19.00;;;3.53;;
16824;SDS011;8529;48.108;-1.706;2023-12-28T06:26:22;16.48;;;2.92;;
16824;SDS011;8529;48.108;-1.706;2023-12-28T06:28:50;18.52;;;3.58;;
16824;SDS011;8529;48.108;-1.706;2023-12-28T06:31:18;16.45;;;3.28;;
16824;SDS011;8529;48.108;-1.706;2023-12-28T06:33:45;15.45;;;3.63;;
16824;SDS011;8529;48.108;-1.706;2023-12-28T06:36:12;21.17;;;3.03;;
16824;SDS011;8529;48.108;-1.706;2023-12-28T06:38:39;17.20;;;2.97;;
16824;SDS011;8529;48.108;-1.706;2023-12-28T06:41:12;17.10;;;2.42;;
16824;SDS011;8529;48.108;-1.706;2023-12-28T06:43:39;16.92;;;3.08;;
16824;SDS011;8529;48.108;-1.706;2023-12-28T06:46:07;15.05;;;2.88;;
16824;SDS011;8529;48.108;-1.706;2023-12-28T06:48:34;11.02;;;2.53;;
16824;SDS011;8529;48.108;-1.706;2023-12-28T06:51:03;18.45;;;3.45;;
16824;SDS011;8529;48.108;-1.706;2023-12-28T06:53:30;18.60;;;3.00;;
16824;SDS011;8529;48.108;-1.706;2023-12-28T06:55:57;12.85;;;3.22;;
16824;SDS011;8529;48.108;-1.706;2023-12-28T06:58:24;19.70;;;4.13;;
16824;SDS011;8529;48.108;-1.706;2023-12-28T07:00:51;13.95;;;3.15;;
16824;SDS011;8529;48.108;-1.706;2023-12-28T07:03:19;15.38;;;2.63;;
16824;SDS011;8529;48.108;-1.706;2023-12-28T07:05:46;19.60;;;3.30;;
16824;SDS011;8529;48.108;-1.706;2023-12-28T07:08:13;13.80;;;2.88;;
16824;SDS011;8529;48.108;-1.706;2023-12-28T07:10:40;14.27;;;3.17;;
16824;SDS011;8529;48.108;-1.706;2023-12-28T07:13:07;18.83;;;2.70;;
16824;SDS011;8529;48.108;-1.706;2023-12-28T07:15:33;14.23;;;3.28;;
16824;SDS011;8529;48.108;-1.706;2023-12-28T07:18:00;15.43;;;2.88;;
16824;SDS011;8529;48.108;-1.706;2023-12-28T07:20:29;15.65;;;3.67;;
16824;SDS011;8529;48.108;-1.706;2023-12-28T07:22:55;14.02;;;3.22;;
16824;SDS011;8529;48.108;-1.706;2023-12-28T07:25:22;13.57;;;3.35;;
16824;SDS011;8529;48.108;-1.706;2023-12-28T07:27:49;14.73;;;2.90;;
16824;SDS011;8529;48.108;-1.706;2023-12-28T07:30:16;16.52;;;4.43;;
16824;SDS011;8529;48.108;-1.706;2023-12-28T07:32:43;14.10;;;4.88;;
16824;SDS011;8529;48.108;-1.706;2023-12-28T07:35:11;24.58;;;11.60;;
16824;SDS011;8529;48.108;-1.706;2023-12-28T07:37:39;27.42;;;9.25;;
16824;SDS011;8529;48.108;-1.706;2023-12-28T07:40:06;38.05;;;21.98;;
16824;SDS011;8529;48.108;-1.706;2023-12-28T07:42:34;27.80;;;10.05;;
16824;SDS011;8529;48.108;-1.706;2023-12-28T07:45:00;33.55;;;14.68;;
16824;SDS011;8529;48.108;-1.706;2023-12-28T07:47:26;19.35;;;4.60;;
16824;SDS011;8529;48.108;-1.706;2023-12-28T07:49:53;19.55;;;5.40;;
16824;SDS011;8529;48.108;-1.706;2023-12-28T07:52:20;15.57;;;4.60;;
16824;SDS011;8529;48.108;-1.706;2023-12-28T07:54:48;22.08;;;8.52;;
16824;SDS011;8529;48.108;-1.706;2023-12-28T07:57:15;17.77;;;4.30;;
16824;SDS011;8529;48.108;-1.706;2023-12-28T07:59:42;18.38;;;4.30;;
16824;SDS011;8529;48.108;-1.706;2023-12-28T08:02:09;19.83;;;4.88;;
16824;SDS011;8529;48.108;-1.706;2023-12-28T08:04:36;13.98;;;3.10;;
16824;SDS011;8529;48.108;-1.706;2023-12-28T08:07:03;20.33;;;3.20;;
16824;SDS011;8529;48.108;-1.706;2023-12-28T08:09:32;15.23;;;2.85;;
16824;SDS011;8529;48.108;-1.706;2023-12-28T08:12:01;17.20;;;3.65;;
16824;SDS011;8529;48.108;-1.706;2023-12-28T08:14:29;15.20;;;3.13;;
16824;SDS011;8529;48.108;-1.706;2023-12-28T08:16:56;23.85;;;3.70;;
16824;SDS011;8529;48.108;-1.706;2023-12-28T08:19:23;18.67;;;3.35;;
16824;SDS011;8529;48.108;-1.706;2023-12-28T08:21:50;24.38;;;4.72;;
16824;SDS011;8529;48.108;-1.706;2023-12-28T08:24:17;19.55;;;6.53;;
16824;SDS011;8529;48.108;-1.706;2023-12-28T08:26:43;16.60;;;3.55;;
16824;SDS011;8529;48.108;-1.706;2023-12-28T08:29:12;18.20;;;3.75;;
16824;SDS011;8529;48.108;-1.706;2023-12-28T08:31:39;17.58;;;3.83;;
16824;SDS011;8529;48.108;-1.706;2023-12-28T08:34:06;18.30;;;3.55;;
16824;SDS011;8529;48.108;-1.706;2023-12-28T08:36:32;19.08;;;3.03;;
16824;SDS011;8529;48.108;-1.706;2023-12-28T08:38:59;14.98;;;3.53;;
16824;SDS011;8529;48.108;-1.706;2023-12-28T08:41:26;16.92;;;4.25;;
16824;SDS011;8529;48.108;-1.706;2023-12-28T08:43:53;15.90;;;3.85;;
16824;SDS011;8529;48.108;-1.706;2023-12-28T08:46:22;11.65;;;4.10;;
16824;SDS011;8529;48.108;-1.706;2023-12-28T08:48:49;12.82;;;3.08;;
16824;SDS011;8529;48.108;-1.706;2023-12-28T08:51:16;17.02;;;4.38;;
16824;SDS011;8529;48.108;-1.706;2023-12-28T08:53:43;19.73;;;3.35;;
16824;SDS011;8529;48.108;-1.706;2023-12-28T08:56:15;18.50;;;4.55;;
16824;SDS011;8529;48.108;-1.706;2023-12-28T08:58:43;12.32;;;2.95;;
16824;SDS011;8529;48.108;-1.706;2023-12-28T09:01:15;11.63;;;2.72;;
16824;SDS011;8529;48.108;-1.706;2023-12-28T09:03:44;15.23;;;4.28;;
16824;SDS011;8529;48.108;-1.706;2023-12-28T09:06:11;20.98;;;4.95;;
16824;SDS011;8529;48.108;-1.706;2023-12-28T09:08:40;10.95;;;3.05;;
16824;SDS011;8529;48.108;-1.706;2023-12-28T09:11:07;13.60;;;3.55;;
16824;SDS011;8529;48.108;-1.706;2023-12-28T09:13:36;19.73;;;3.50;;
16824;SDS011;8529;48.108;-1.706;2023-12-28T09:16:03;16.88;;;3.78;;
16824;SDS011;8529;48.108;-1.706;2023-12-28T09:18:30;17.42;;;3.60;;
16824;SDS011;8529;48.108;-1.706;2023-12-28T09:20:58;13.70;;;3.70;;
16824;SDS011;8529;48.108;-1.706;2023-12-28T09:23:25;14.02;;;3.85;;
16824;SDS011;8529;48.108;-1.706;2023-12-28T09:25:52;21.00;;;3.17;;
16824;SDS011;8529;48.108;-1.706;2023-12-28T09:28:18;8.95;;;2.80;;
16824;SDS011;8529;48.108;-1.706;2023-12-28T09:30:45;10.25;;;3.22;;
16824;SDS011;8529;48.108;-1.706;2023-12-28T09:33:12;23.10;;;3.38;;
16824;SDS011;8529;48.108;-1.706;2023-12-28T09:35:40;15.65;;;3.58;;
16824;SDS011;8529;48.108;-1.706;2023-12-28T09:38:08;15.43;;;3.22;;
16824;SDS011;8529;48.108;-1.706;2023-12-28T09:40:35;11.35;;;2.55;;
16824;SDS011;8529;48.108;-1.706;2023-12-28T09:43:05;11.65;;;2.75;;
16824;SDS011;8529;48.108;-1.706;2023-12-28T09:45:39;19.05;;;3.20;;
16824;SDS011;8529;48.108;-1.706;2023-12-28T09:48:06;9.13;;;2.38;;
16824;SDS011;8529;48.108;-1.706;2023-12-28T09:50:33;13.38;;;2.75;;
16824;SDS011;8529;48.108;-1.706;2023-12-28T09:53:00;16.70;;;3.88;;
16824;SDS011;8529;48.108;-1.706;2023-12-28T09:55:28;12.25;;;2.67;;
16824;SDS011;8529;48.108;-1.706;2023-12-28T09:57:55;13.82;;;3.13;;
16824;SDS011;8529;48.108;-1.706;2023-12-28T10:00:24;13.65;;;2.90;;
16824;SDS011;8529;48.108;-1.706;2023-12-28T10:02:51;12.57;;;2.85;;
16824;SDS011;8529;48.108;-1.706;2023-12-28T10:05:18;16.98;;;2.58;;
16824;SDS011;8529;48.108;-1.706;2023-12-28T10:07:45;18.45;;;3.22;;
16824;SDS011;8529;48.108;-1.706;2023-12-28T10:10:14;12.68;;;3.47;;
16824;SDS011;8529;48.108;-1.706;2023-12-28T10:12:42;11.65;;;2.53;;
16824;SDS011;8529;48.108;-1.706;2023-12-28T10:15:09;18.20;;;2.97;;
16824;SDS011;8529;48.108;-1.706;2023-12-28T10:17:36;16.63;;;2.75;;
16824;SDS011;8529;48.108;-1.706;2023-12-28T10:20:06;17.42;;;3.33;;
16824;SDS011;8529;48.108;-1.706;2023-12-28T10:22:35;14.82;;;3.03;;
16824;SDS011;8529;48.108;-1.706;2023-12-28T10:25:02;11.68;;;3.15;;
16824;SDS011;8529;48.108;-1.706;2023-12-28T10:27:30;12.85;;;2.80;;
16824;SDS011;8529;48.108;-1.706;2023-12-28T10:29:59;13.90;;;2.25;;
16824;SDS011;8529;48.108;-1.706;2023-12-28T10:32:26;15.57;;;3.50;;
16824;SDS011;8529;48.108;-1.706;2023-12-28T10:34:53;14.40;;;3.08;;
16824;SDS011;8529;48.108;-1.706;2023-12-28T10:37:20;15.57;;;2.50;;
16824;SDS011;8529;48.108;-1.706;2023-12-28T10:39:48;12.88;;;2.70;;
16824;SDS011;8529;48.108;-1.706;2023-12-28T10:42:16;10.27;;;2.50;;
16824;SDS011;8529;48.108;-1.706;2023-12-28T10:44:51;11.23;;;2.70;;
16824;SDS011;8529;48.108;-1.706;2023-12-28T10:47:22;15.75;;;2.75;;
16824;SDS011;8529;48.108;-1.706;2023-12-28T10:49:52;23.77;;;2.53;;
16824;SDS011;8529;48.108;-1.706;2023-12-28T10:52:20;14.18;;;3.70;;
16824;SDS011;8529;48.108;-1.706;2023-12-28T10:54:51;8.77;;;2.10;;
16824;SDS011;8529;48.108;-1.706;2023-12-28T10:57:23;9.80;;;2.40;;
16824;SDS011;8529;48.108;-1.706;2023-12-28T10:59:56;12.68;;;2.80;;
16824;SDS011;8529;48.108;-1.706;2023-12-28T11:02:38;13.90;;;2.42;;
16824;SDS011;8529;48.108;-1.706;2023-12-28T11:05:06;12.55;;;1.88;;
16824;SDS011;8529;48.108;-1.706;2023-12-28T11:07:34;12.98;;;2.60;;
16824;SDS011;8529;48.108;-1.706;2023-12-28T11:10:03;15.70;;;3.13;;
16824;SDS011;8529;48.108;-1.706;2023-12-28T11:12:31;12.32;;;2.53;;
16824;SDS011;8529;48.108;-1.706;2023-12-28T11:14:59;13.90;;;4.82;;
16824;SDS011;8529;48.108;-1.706;2023-12-28T11:17:27;15.48;;;2.83;;
16824;SDS011;8529;48.108;-1.706;2023-12-28T11:19:57;11.07;;;3.17;;
16824;SDS011;8529;48.108;-1.706;2023-12-28T11:22:24;10.35;;;2.63;;
16824;SDS011;8529;48.108;-1.706;2023-12-28T11:24:52;12.32;;;2.38;;
16824;SDS011;8529;48.108;-1.706;2023-12-28T11:27:19;13.20;;;2.30;;
16824;SDS011;8529;48.108;-1.706;2023-12-28T11:29:47;10.77;;;2.60;;
16824;SDS011;8529;48.108;-1.706;2023-12-28T11:32:17;7.55;;;2.30;;
16824;SDS011;8529;48.108;-1.706;2023-12-28T11:34:44;12.93;;;2.40;;
16824;SDS011;8529;48.108;-1.706;2023-12-28T11:37:14;9.88;;;2.30;;
16824;SDS011;8529;48.108;-1.706;2023-12-28T11:39:44;9.20;;;2.20;;
16824;SDS011;8529;48.108;-1.706;2023-12-28T11:42:11;13.55;;;2.60;;
16824;SDS011;8529;48.108;-1.706;2023-12-28T11:44:39;11.77;;;2.95;;
16824;SDS011;8529;48.108;-1.706;2023-12-28T11:47:10;12.68;;;2.28;;
16824;SDS011;8529;48.108;-1.706;2023-12-28T11:49:38;11.15;;;2.55;;
16824;SDS011;8529;48.108;-1.706;2023-12-28T11:52:06;11.82;;;2.50;;
16824;SDS011;8529;48.108;-1.706;2023-12-28T11:54:35;10.55;;;2.72;;
16824;SDS011;8529;48.108;-1.706;2023-12-28T11:57:02;13.35;;;2.60;;
16824;SDS011;8529;48.108;-1.706;2023-12-28T11:59:31;15.73;;;3.05;;
16824;SDS011;8529;48.108;-1.706;2023-12-28T12:01:58;8.40;;;2.03;;
16824;SDS011;8529;48.108;-1.706;2023-12-28T12:04:26;11.85;;;2.00;;
16824;SDS011;8529;48.108;-1.706;2023-12-28T12:06:53;13.35;;;2.10;;
16824;SDS011;8529;48.108;-1.706;2023-12-28T12:09:20;12.10;;;2.50;;
16824;SDS011;8529;48.108;-1.706;2023-12-28T12:11:49;15.27;;;3.10;;
16824;SDS011;8529;48.108;-1.706;2023-12-28T12:14:16;6.15;;;2.08;;
16824;SDS011;8529;48.108;-1.706;2023-12-28T12:16:43;6.68;;;1.95;;
16824;SDS011;8529;48.108;-1.706;2023-12-28T12:19:10;5.28;;;1.70;;
16824;SDS011;8529;48.108;-1.706;2023-12-28T12:21:37;15.02;;;3.28;;
16824;SDS011;8529;48.108;-1.706;2023-12-28T12:24:04;8.68;;;2.17;;
16824;SDS011;8529;48.108;-1.706;2023-12-28T12:26:32;8.18;;;2.22;;
16824;SDS011;8529;48.108;-1.706;2023-12-28T12:29:02;10.27;;;2.03;;
16824;SDS011;8529;48.108;-1.706;2023-12-28T12:31:30;9.63;;;2.20;;
16824;SDS011;8529;48.108;-1.706;2023-12-28T12:33:57;11.63;;;2.67;;
16824;SDS011;8529;48.108;-1.706;2023-12-28T12:36:24;8.52;;;2.25;;
16824;SDS011;8529;48.108;-1.706;2023-12-28T12:38:51;8.27;;;2.55;;
16824;SDS011;8529;48.108;-1.706;2023-12-28T12:41:19;10.70;;;2.00;;
16824;SDS011;8529;48.108;-1.706;2023-12-28T12:43:46;6.70;;;2.17;;
16824;SDS011;8529;48.108;-1.706;2023-12-28T12:46:14;8.20;;;2.00;;
16824;SDS011;8529;48.108;-1.706;2023-12-28T12:48:41;5.45;;;1.80;;
16824;SDS011;8529;48.108;-1.706;2023-12-28T12:51:09;10.27;;;2.65;;
16824;SDS011;8529;48.108;-1.706;2023-12-28T12:53:36;9.65;;;2.00;;
16824;SDS011;8529;48.108;-1.706;2023-12-28T12:56:03;7.15;;;1.80;;
16824;SDS011;8529;48.108;-1.706;2023-12-28T12:58:31;10.55;;;2.45;;
16824;SDS011;8529;48.108;-1.706;2023-12-28T13:00:58;10.70;;;2.22;;
16824;SDS011;8529;48.108;-1.706;2023-12-28T13:03:30;8.80;;;2.50;;
16824;SDS011;8529;48.108;-1.706;2023-12-28T13:05:57;11.50;;;2.60;;
16824;SDS011;8529;48.108;-1.706;2023-12-28T13:08:24;8.73;;;1.60;;
16824;SDS011;8529;48.108;-1.706;2023-12-28T13:10:51;13.05;;;1.90;;
16824;SDS011;8529;48.108;-1.706;2023-12-28T13:13:19;13.98;;;2.65;;
16824;SDS011;8529;48.108;-1.706;2023-12-28T13:15:46;8.68;;;2.00;;
16824;SDS011;8529;48.108;-1.706;2023-12-28T13:18:13;8.02;;;2.20;;
16824;SDS011;8529;48.108;-1.706;2023-12-28T13:20:41;10.35;;;2.38;;
16824;SDS011;8529;48.108;-1.706;2023-12-28T13:23:10;10.27;;;1.98;;
16824;SDS011;8529;48.108;-1.706;2023-12-28T13:25:37;9.43;;;2.15;;
16824;SDS011;8529;48.108;-1.706;2023-12-28T13:28:04;8.00;;;1.73;;
16824;SDS011;8529;48.108;-1.706;2023-12-28T13:30:32;10.80;;;1.80;;
16824;SDS011;8529;48.108;-1.706;2023-12-28T13:33:01;14.77;;;2.55;;
16824;SDS011;8529;48.108;-1.706;2023-12-28T13:35:29;11.38;;;2.35;;
16824;SDS011;8529;48.108;-1.706;2023-12-28T13:37:59;7.82;;;2.38;;
16824;SDS011;8529;48.108;-1.706;2023-12-28T13:40:27;17.63;;;2.55;;
16824;SDS011;8529;48.108;-1.706;2023-12-28T13:42:55;13.15;;;1.90;;
16824;SDS011;8529;48.108;-1.706;2023-12-28T13:45:22;8.55;;;1.80;;
16824;SDS011;8529;48.108;-1.706;2023-12-28T13:47:50;7.18;;;1.73;;
16824;SDS011;8529;48.108;-1.706;2023-12-28T13:50:17;12.32;;;2.00;;
16824;SDS011;8529;48.108;-1.706;2023-12-28T13:52:44;10.90;;;2.40;;
16824;SDS011;8529;48.108;-1.706;2023-12-28T13:55:13;7.80;;;1.90;;
16824;SDS011;8529;48.108;-1.706;2023-12-28T13:57:40;9.82;;;2.38;;
16824;SDS011;8529;48.108;-1.706;2023-12-28T14:00:07;6.28;;;1.75;;
16824;SDS011;8529;48.108;-1.706;2023-12-28T14:02:35;8.25;;;2.65;;
16824;SDS011;8529;48.108;-1.706;2023-12-28T14:05:02;11.15;;;2.08;;
16824;SDS011;8529;48.108;-1.706;2023-12-28T14:07:29;8.32;;;2.30;;
16824;SDS011;8529;48.108;-1.706;2023-12-28T14:09:56;12.30;;;2.10;;
16824;SDS011;8529;48.108;-1.706;2023-12-28T14:12:25;14.70;;;2.60;;
16824;SDS011;8529;48.108;-1.706;2023-12-28T14:14:53;20.67;;;2.85;;
16824;SDS011;8529;48.108;-1.706;2023-12-28T14:17:20;22.10;;;3.28;;
16824;SDS011;8529;48.108;-1.706;2023-12-28T14:19:47;17.17;;;2.72;;
16824;SDS011;8529;48.108;-1.706;2023-12-28T14:22:14;10.25;;;2.22;;
16824;SDS011;8529;48.108;-1.706;2023-12-28T14:24:42;12.60;;;3.40;;
16824;SDS011;8529;48.108;-1.706;2023-12-28T14:27:09;11.60;;;2.63;;
16824;SDS011;8529;48.108;-1.706;2023-12-28T14:29:39;9.70;;;1.85;;
16824;SDS011;8529;48.108;-1.706;2023-12-28T14:32:06;11.57;;;2.60;;
16824;SDS011;8529;48.108;-1.706;2023-12-28T14:34:34;17.00;;;2.75;;
16824;SDS011;8529;48.108;-1.706;2023-12-28T14:37:01;8.15;;;2.33;;
16824;SDS011;8529;48.108;-1.706;2023-12-28T14:39:29;10.77;;;2.13;;
16824;SDS011;8529;48.108;-1.706;2023-12-28T14:41:56;8.23;;;1.80;;